Time;durP1;ratioP1;P1;durP2;ratioP2;P2;SDS_P1;SDS_P2;PMS_P1;PMS_P2;Temp;Humidity;BMP_temperature;BMP_pressure;BME280_temperature;BME280_humidity;BME280_pressure;Samples;Min_cycle;Max_cycle;Signal;HPM_P1;HPM_P2
2021/08/10 00:02:10;;;;;;;8.77;3.83;;;16.70;2.60;;;;;;5096140;27;20067;-75
2021/08/10 00:04:58;;;;;;;5.95;3.78;;;16.60;2.90;;;;;;5110089;27;20046;-75
2021/08/10 00:07:46;;;;;;;8.90;3.67;;;16.60;3.10;;;;;;5104127;27;20043;-75
2021/08/10 00:10:36;;;;;;;6.85;3.45;;;16.60;2.30;;;;;;5091172;27;20050;-74
2021/08/10 00:13:25;;;;;;;6.72;3.50;;;16.60;2.30;;;;;;5096064;27;20081;-74
2021/08/10 00:16:14;;;;;;;10.13;3.67;;;16.60;2.50;;;;;;5104667;27;20055;-74
2021/08/10 00:19:02;;;;;;;5.78;3.15;;;16.70;1.80;;;;;;5086987;28;20054;-74
2021/08/10 00:21:51;;;;;;;7.07;3.15;;;16.70;1.70;;;;;;5105967;27;20074;-74
2021/08/10 00:24:39;;;;;;;7.57;2.97;;;16.60;1.60;;;;;;5109622;27;20052;-75
2021/08/10 00:27:29;;;;;;;5.13;3.25;;;16.50;1.90;;;;;;5104222;27;20566;-75
2021/08/10 00:30:17;;;;;;;10.52;3.13;;;16.50;2.60;;;;;;5096829;27;20044;-75
2021/08/10 00:33:05;;;;;;;7.82;3.88;;;16.40;3.30;;;;;;5108698;27;20276;-75
2021/08/10 00:35:54;;;;;;;6.93;2.78;;;16.20;4.50;;;;;;5111264;27;20478;-75
2021/08/10 00:38:43;;;;;;;6.60;2.80;;;16.20;4.50;;;;;;5095514;27;20122;-75
2021/08/10 00:41:31;;;;;;;7.68;2.70;;;16.20;4.50;;;;;;5092952;27;20092;-75
2021/08/10 00:44:22;;;;;;;7.68;2.97;;;16.10;4.90;;;;;;5092047;28;20511;-75
2021/08/10 00:47:12;;;;;;;6.55;3.00;;;16.20;4.50;;;;;;5084220;28;20063;-74
2021/08/10 00:50:00;;;;;;;5.95;3.20;;;16.10;5.40;;;;;;5092398;27;20077;-74
2021/08/10 00:52:51;;;;;;;6.80;2.95;;;16.00;5.80;;;;;;5083779;27;20061;-75
2021/08/10 00:55:44;;;;;;;5.45;2.67;;;16.00;5.90;;;;;;5094175;27;20043;-74
2021/08/10 00:58:32;;;;;;;5.57;2.70;;;16.10;5.70;;;;;;5089242;27;20062;-74
2021/08/10 01:01:22;;;;;;;9.95;3.05;;;16.00;5.80;;;;;;5108782;27;20525;-75
2021/08/10 01:04:12;;;;;;;4.13;2.60;;;16.00;5.30;;;;;;5093058;27;20047;-75
2021/08/10 01:07:07;;;;;;;7.72;2.80;;;16.00;5.50;;;;;;5086294;28;20426;-75
2021/08/10 01:10:06;;;;;;;2.78;2.45;;;16.00;6.00;;;;;;5093240;27;20043;-75
2021/08/10 01:13:00;;;;;;;4.82;2.58;;;16.00;5.50;;;;;;5089278;27;20047;-75
2021/08/10 01:15:55;;;;;;;;;;;16.00;5.80;;;;;;5090932;28;20070;-75
2021/08/10 01:18:55;;;;;;;5.57;2.47;;;15.90;6.00;;;;;;5087211;27;19928;-75
2021/08/10 01:21:50;;;;;;;6.07;2.63;;;16.00;5.60;;;;;;5104946;27;20549;-75
2021/08/10 01:24:43;;;;;;;4.82;2.60;;;16.00;5.30;;;;;;5087293;28;20529;-75
2021/08/10 01:27:47;;;;;;;5.60;2.90;;;16.10;5.10;;;;;;5097356;28;20409;-75
2021/08/10 01:30:45;;;;;;;4.83;2.63;;;16.00;5.40;;;;;;5090379;27;20208;-75
2021/08/10 01:33:38;;;;;;;8.02;3.08;;;16.00;5.60;;;;;;5089761;27;20051;-75
2021/08/10 01:36:32;;;;;;;5.55;2.90;;;16.00;5.60;;;;;;5090130;28;20485;-75
2021/08/10 01:39:22;;;;;;;6.70;3.40;;;16.00;6.20;;;;;;5072387;28;20143;-75
2021/08/10 01:42:17;;;;;;;5.85;3.20;;;15.80;6.40;;;;;;5090148;28;20051;-75
2021/08/10 01:45:08;;;;;;;4.47;2.90;;;15.80;7.10;;;;;;5109744;27;20039;-75
2021/08/10 01:47:58;;;;;;;6.07;3.20;;;15.70;7.30;;;;;;5110985;27;20043;-75
2021/08/10 01:50:49;;;;;;;6.05;3.33;;;15.70;7.90;;;;;;5085982;28;20172;-75
2021/08/10 01:53:44;;;;;;;6.70;3.75;;;15.70;7.90;;;;;;5082827;28;20067;-75
2021/08/10 01:56:34;;;;;;;6.65;3.40;;;15.70;8.00;;;;;;5095787;28;20122;-75
2021/08/10 01:59:25;;;;;;;10.50;3.97;;;15.70;8.00;;;;;;5086631;28;20071;-75
2021/08/10 02:02:14;;;;;;;5.43;3.13;;;15.70;8.40;;;;;;5087410;28;20070;-75
2021/08/10 02:05:07;;;;;;;8.18;3.72;;;15.70;8.40;;;;;;5089190;28;20174;-75
2021/08/10 02:07:57;;;;;;;6.38;3.40;;;15.70;8.70;;;;;;5093810;28;20661;-75
2021/08/10 02:10:47;;;;;;;5.43;3.38;;;15.70;8.80;;;;;;5095043;28;20659;-75
2021/08/10 02:13:38;;;;;;;4.70;3.17;;;15.60;9.40;;;;;;5091095;28;20507;-75
2021/08/10 02:16:28;;;;;;;5.07;3.40;;;15.60;9.80;;;;;;5090871;28;20054;-75
2021/08/10 02:19:17;;;;;;;4.68;3.10;;;15.60;10.30;;;;;;5092192;28;20052;-76
2021/08/10 02:22:11;;;;;;;7.07;3.20;;;15.50;10.50;;;;;;5095778;28;20052;-75
2021/08/10 02:25:07;;;;;;;5.35;3.20;;;15.50;10.50;;;;;;5101780;27;20047;-75
2021/08/10 02:28:03;;;;;;;7.80;3.60;;;15.40;11.50;;;;;;5093572;27;20402;-75
2021/08/10 02:30:53;;;;;;;7.40;4.10;;;15.30;12.20;;;;;;5100875;27;20571;-75
2021/08/10 02:33:52;;;;;;;6.00;3.38;;;15.40;12.20;;;;;;5088460;27;20052;-76
2021/08/10 02:36:42;;;;;;;7.28;3.30;;;15.20;13.60;;;;;;5091777;28;20565;-76
2021/08/10 02:39:31;;;;;;;5.07;3.20;;;15.10;14.40;;;;;;5094904;28;20490;-76
2021/08/10 02:42:25;;;;;;;5.60;3.38;;;15.00;15.80;;;;;;5112481;27;20639;-76
2021/08/10 02:45:14;;;;;;;5.57;2.80;;;14.90;17.50;;;;;;5094483;27;20039;-76
2021/08/10 02:48:03;;;;;;;4.32;3.00;;;14.70;18.50;;;;;;5090732;27;20039;-76
2021/08/10 02:50:55;;;;;;;8.13;3.28;;;14.70;19.60;;;;;;5098550;27;20047;-76
2021/08/10 02:53:43;;;;;;;6.57;3.60;;;14.70;20.60;;;;;;5110379;27;20074;-76
2021/08/10 02:56:34;;;;;;;4.65;3.35;;;14.70;21.30;;;;;;5095692;27;20133;-76
2021/08/10 02:59:30;;;;;;;5.60;3.53;;;14.50;21.60;;;;;;5092521;27;20052;-75
2021/08/10 03:02:22;;;;;;;6.57;3.25;;;14.70;21.80;;;;;;5090302;27;20414;-75
2021/08/10 03:05:15;;;;;;;5.75;3.25;;;14.60;22.00;;;;;;5096608;27;20152;-75
2021/08/10 03:08:07;;;;;;;6.80;3.42;;;14.60;22.80;;;;;;5092974;27;20046;-76
2021/08/10 03:10:59;;;;;;;7.95;3.67;;;14.60;23.60;;;;;;5096998;27;20051;-75
2021/08/10 03:13:50;;;;;;;6.63;4.30;;;14.60;24.10;;;;;;5077115;27;20076;-75
2021/08/10 03:16:41;;;;;;;8.27;3.92;;;14.70;23.20;;;;;;5091822;27;20126;-75
2021/08/10 03:19:32;;;;;;;10.93;4.35;;;14.80;22.10;;;;;;5095268;27;20043;-75
2021/08/10 03:22:21;;;;;;;7.75;3.83;;;14.90;21.70;;;;;;5094281;27;20058;-76
2021/08/10 03:25:13;;;;;;;8.02;4.43;;;14.90;21.00;;;;;;5093278;27;20656;-75
2021/08/10 03:28:02;;;;;;;9.93;4.32;;;15.00;21.00;;;;;;5092284;27;20054;-75
2021/08/10 03:30:51;;;;;;;7.18;3.90;;;14.90;21.30;;;;;;5091507;27;20052;-75
2021/08/10 03:33:45;;;;;;;6.60;4.15;;;15.00;21.20;;;;;;5100736;27;20039;-75
2021/08/10 03:36:34;;;;;;;10.57;4.25;;;15.10;20.40;;;;;;5089156;28;20047;-75
2021/08/10 03:39:24;;;;;;;7.65;4.47;;;15.10;19.90;;;;;;5093783;27;20144;-76
2021/08/10 03:42:16;;;;;;;10.82;4.53;;;15.10;19.90;;;;;;5088244;27;20043;-76
2021/08/10 03:45:07;;;;;;;6.60;3.75;;;15.10;19.70;;;;;;5097277;27;20068;-75
2021/08/10 03:47:57;;;;;;;5.93;3.80;;;15.10;20.10;;;;;;5091241;27;20047;-74
2021/08/10 03:50:48;;;;;;;6.93;3.88;;;15.10;20.00;;;;;;5094641;27;20180;-75
2021/08/10 03:53:36;;;;;;;9.48;4.63;;;15.00;20.60;;;;;;5090914;27;20079;-75
2021/08/10 03:56:27;;;;;;;7.15;3.95;;;14.90;21.60;;;;;;5088411;27;20051;-75
2021/08/10 03:59:20;;;;;;;7.82;4.13;;;15.00;21.30;;;;;;5095980;27;20077;-75
2021/08/10 04:02:14;;;;;;;6.85;3.75;;;14.90;21.60;;;;;;5092878;27;20126;-75
2021/08/10 04:05:05;;;;;;;8.82;3.80;;;15.00;21.90;;;;;;5107574;27;20040;-75
2021/08/10 04:07:56;;;;;;;11.52;4.15;;;15.00;21.90;;;;;;5091553;28;20077;-74
2021/08/10 04:10:45;;;;;;;8.48;4.30;;;15.10;21.50;;;;;;5092796;27;20047;-75
2021/08/10 04:13:38;;;;;;;9.90;4.40;;;15.10;21.20;;;;;;5090090;27;20406;-75
2021/08/10 04:16:28;;;;;;;6.68;4.28;;;15.10;20.40;;;;;;5119704;27;20288;-75
2021/08/10 04:19:20;;;;;;;7.90;4.07;;;15.20;20.30;;;;;;5097225;27;20055;-75
2021/08/10 04:22:10;;;;;;;7.57;4.70;;;15.30;19.40;;;;;;5094689;27;20052;-75
2021/08/10 04:25:02;;;;;;;7.47;3.97;;;15.40;18.80;;;;;;5092389;27;20047;-75
2021/08/10 04:27:51;;;;;;;6.70;3.75;;;15.40;18.70;;;;;;5092532;27;20503;-75
2021/08/10 04:30:42;;;;;;;9.63;4.63;;;15.30;18.90;;;;;;5093557;27;20490;-75
2021/08/10 04:33:30;;;;;;;10.13;4.28;;;15.30;19.30;;;;;;5088192;27;20047;-75
2021/08/10 04:36:19;;;;;;;8.05;3.90;;;15.40;18.70;;;;;;5094682;27;20059;-75
2021/08/10 04:39:08;;;;;;;6.93;3.88;;;15.40;18.70;;;;;;5106235;27;20047;-76
2021/08/10 04:41:58;;;;;;;10.68;4.78;;;15.50;18.80;;;;;;5094924;27;20054;-75
2021/08/10 04:44:47;;;;;;;7.82;3.70;;;15.50;18.20;;;;;;5100330;27;20584;-76
2021/08/10 04:47:35;;;;;;;6.55;4.00;;;15.40;18.70;;;;;;5094333;27;20052;-74
2021/08/10 04:50:26;;;;;;;8.10;4.55;;;15.60;18.70;;;;;;5088194;27;20399;-75
2021/08/10 04:53:15;;;;;;;6.90;4.38;;;15.50;18.80;;;;;;5092080;27;20058;-75
2021/08/10 04:56:03;;;;;;;8.15;5.28;;;15.60;18.80;;;;;;5093662;27;20043;-75
2021/08/10 04:58:53;;;;;;;7.72;4.13;;;15.90;15.60;;;;;;5107748;27;20043;-75
2021/08/10 05:01:44;;;;;;;6.85;4.03;;;15.80;15.40;;;;;;5093583;27;20104;-75
2021/08/10 05:04:33;;;;;;;8.25;4.85;;;15.70;16.70;;;;;;5085067;28;20082;-75
2021/08/10 05:07:21;;;;;;;7.80;4.00;;;15.50;16.90;;;;;;5080474;27;20054;-76
2021/08/10 05:10:11;;;;;;;8.73;4.03;;;15.40;18.00;;;;;;5090805;28;20059;-76
2021/08/10 05:13:00;;;;;;;6.93;4.38;;;15.50;18.50;;;;;;5073066;27;20466;-76
2021/08/10 05:15:51;;;;;;;5.85;4.00;;;15.60;17.60;;;;;;5093537;28;20078;-75
2021/08/10 05:18:42;;;;;;;7.28;3.90;;;15.60;18.40;;;;;;5114055;27;20051;-75
2021/08/10 05:21:31;;;;;;;7.82;4.53;;;15.70;16.90;;;;;;5091956;28;20043;-75
2021/08/10 05:24:19;;;;;;;8.93;3.97;;;15.70;15.40;;;;;;5094511;27;20043;-75
2021/08/10 05:27:08;;;;;;;5.43;4.20;;;15.70;16.30;;;;;;5104072;27;20048;-76
2021/08/10 05:29:57;;;;;;;6.28;3.75;;;15.80;16.60;;;;;;5093653;28;20046;-76
2021/08/10 05:32:47;;;;;;;8.60;4.32;;;15.70;17.30;;;;;;5092192;27;20040;-76
2021/08/10 05:35:48;;;;;;;8.85;4.45;;;15.70;17.40;;;;;;5096154;27;20051;-75
2021/08/10 05:38:43;;;;;;;9.55;4.13;;;15.80;17.10;;;;;;5087915;28;20061;-77
2021/08/10 05:41:31;;;;;;;8.27;4.43;;;15.80;16.40;;;;;;5089021;27;20058;-76
2021/08/10 05:44:21;;;;;;;8.25;3.97;;;16.10;15.60;;;;;;5088330;28;20039;-74
2021/08/10 05:47:11;;;;;;;11.43;4.00;;;16.00;15.60;;;;;;5086280;28;20668;-76
2021/08/10 05:50:04;;;;;;;8.05;4.32;;;16.00;15.90;;;;;;5088389;28;20055;-75
2021/08/10 05:52:54;;;;;;;14.45;4.43;;;16.20;15.10;;;;;;5086483;28;20502;-75
2021/08/10 05:55:46;;;;;;;7.32;4.40;;;16.40;14.10;;;;;;5088341;28;20044;-75
2021/08/10 05:58:35;;;;;;;12.32;4.68;;;16.40;13.40;;;;;;5092382;27;20047;-75
2021/08/10 06:01:25;;;;;;;5.95;3.85;;;16.40;14.00;;;;;;5091629;27;20043;-76
2021/08/10 06:04:15;;;;;;;9.23;4.00;;;16.50;13.60;;;;;;5096686;27;20174;-76
2021/08/10 06:07:07;;;;;;;6.47;4.05;;;16.40;12.80;;;;;;5096795;27;20133;-76
2021/08/10 06:09:59;;;;;;;8.68;4.38;;;16.50;12.20;;;;;;5068601;27;20566;-75
2021/08/10 06:12:48;;;;;;;10.43;3.92;;;16.50;12.30;;;;;;5112837;27;20547;-75
2021/08/10 06:15:39;;;;;;;16.73;4.07;;;16.70;12.40;;;;;;5102085;27;20102;-75
2021/08/10 06:18:29;;;;;;;7.10;3.65;;;16.80;11.10;;;;;;5095446;27;20046;-75
2021/08/10 06:21:23;;;;;;;11.30;4.07;;;17.00;9.30;;;;;;5094318;27;20525;-75
2021/08/10 06:24:13;;;;;;;10.43;4.20;;;17.50;9.20;;;;;;5096847;27;20289;-74
2021/08/10 06:27:04;;;;;;;8.07;4.13;;;18.00;4.20;;;;;;5089213;27;20577;-75
2021/08/10 06:29:53;;;;;;;6.57;4.00;;;18.30;3.20;;;;;;5087369;27;20049;-75
2021/08/10 06:32:42;;;;;;;10.38;4.10;;;18.50;1.00;;;;;;5111399;27;20537;-75
2021/08/10 06:35:38;;;;;;;6.00;3.42;;;18.90;1.00;;;;;;5096739;27;20035;-75
2021/08/10 06:38:27;;;;;;;8.43;4.25;;;19.20;1.00;;;;;;5109897;27;20040;-75
2021/08/10 06:41:16;;;;;;;6.55;3.80;;;19.20;1.00;;;;;;5088569;27;20078;-75
2021/08/10 06:44:20;;;;;;;5.75;3.65;;;18.90;1.00;;;;;;5106978;27;20475;-75
2021/08/10 06:47:17;;;;;;;8.23;3.42;;;18.80;1.00;;;;;;5091112;27;20048;-75
2021/08/10 06:50:09;;;;;;;5.20;3.10;;;18.70;1.00;;;;;;5098570;27;20055;-75
2021/08/10 06:52:57;;;;;;;9.82;3.22;;;18.80;1.00;;;;;;5109480;27;20039;-75
2021/08/10 06:55:45;;;;;;;6.47;2.85;;;19.00;1.00;;;;;;5114076;27;20114;-76
2021/08/10 06:58:37;;;;;;;11.98;8.65;;;19.50;1.00;;;;;;5086520;27;20043;-76
2021/08/10 07:01:44;;;;;;;5.80;3.00;;;19.40;1.00;;;;;;5093513;28;20052;-75
2021/08/10 07:04:35;;;;;;;3.85;2.67;;;19.60;1.00;;;;;;5091232;28;20047;-75
2021/08/10 07:07:24;;;;;;;3.70;2.40;;;19.50;1.00;;;;;;5075699;28;20777;-76
2021/08/10 07:10:14;;;;;;;5.95;2.92;;;19.50;1.00;;;;;;5107982;27;20118;-74
2021/08/10 07:13:07;;;;;;;5.15;3.03;;;19.70;1.00;;;;;;5089005;28;20047;-74
2021/08/10 07:15:58;;;;;;;7.53;3.05;;;19.60;1.00;;;;;;5091874;28;20047;-74
2021/08/10 07:18:46;;;;;;;4.97;2.75;;;19.80;1.00;;;;;;5088025;28;20440;-75
2021/08/10 07:21:41;;;;;;;12.88;3.63;;;19.80;1.00;;;;;;5092966;28;20455;-76
2021/08/10 07:24:37;;;;;;;5.00;3.35;;;19.70;1.00;;;;;;5089831;28;20512;-75
2021/08/10 07:27:26;;;;;;;8.75;3.10;;;19.70;1.00;;;;;;5090070;28;20085;-75
2021/08/10 07:30:15;;;;;;;6.20;3.15;;;19.70;1.00;;;;;;5077456;28;20396;-75
2021/08/10 07:33:05;;;;;;;6.35;3.40;;;20.20;1.00;;;;;;5088132;28;20124;-76
2021/08/10 07:35:54;;;;;;;6.38;3.78;;;19.90;1.00;;;;;;5093723;28;21783;-76
2021/08/10 07:38:42;;;;;;;9.98;4.07;;;20.40;1.00;;;;;;5087742;28;20052;-75
2021/08/10 07:41:32;;;;;;;6.05;3.20;;;19.90;1.00;;;;;;5103445;28;20047;-75
2021/08/10 07:44:26;;;;;;;7.65;3.35;;;20.00;1.00;;;;;;5090313;27;20450;-75
2021/08/10 07:47:14;;;;;;;9.13;3.85;;;20.00;1.00;;;;;;5084108;27;20491;-75
2021/08/10 07:50:06;;;;;;;5.88;3.70;;;20.20;1.00;;;;;;5098536;27;20038;-75
2021/08/10 07:52:55;;;;;;;8.77;3.92;;;20.10;1.00;;;;;;5093180;27;20821;-75
2021/08/10 07:55:43;;;;;;;7.15;3.97;;;20.40;1.00;;;;;;5091640;28;20066;-74
2021/08/10 07:58:32;;;;;;;8.13;4.70;;;19.90;1.00;;;;;;5106009;27;20067;-74
2021/08/10 08:01:20;;;;;;;9.00;4.00;;;20.10;1.00;;;;;;5088824;28;20504;-75
2021/08/10 08:04:09;;;;;;;8.43;3.63;;;20.00;1.00;;;;;;5093937;27;20039;-75
2021/08/10 08:06:59;;;;;;;6.13;3.63;;;20.40;1.00;;;;;;5092517;27;20061;-76
2021/08/10 08:09:48;;;;;;;5.20;3.55;;;20.50;1.00;;;;;;5095427;27;20172;-75
2021/08/10 08:12:38;;;;;;;14.20;3.85;;;21.00;1.00;;;;;;5092355;27;20657;-75
2021/08/10 08:15:26;;;;;;;8.13;3.38;;;21.20;1.00;;;;;;5099053;27;20047;-74
2021/08/10 08:18:16;;;;;;;6.63;3.30;;;20.60;1.00;;;;;;5090581;27;20035;-76
2021/08/10 08:21:05;;;;;;;5.30;3.25;;;21.10;1.00;;;;;;5092273;27;20040;-75
2021/08/10 08:24:00;;;;;;;8.73;3.50;;;21.10;1.00;;;;;;5089092;27;20039;-75
2021/08/10 08:26:48;;;;;;;9.23;3.55;;;21.00;1.00;;;;;;5111961;27;20051;-75
2021/08/10 08:29:38;;;;;;;5.72;3.30;;;21.30;1.00;;;;;;5087273;28;20514;-76
2021/08/10 08:32:26;;;;;;;4.78;2.90;;;21.40;1.00;;;;;;5090093;27;20051;-74
2021/08/10 08:35:15;;;;;;;6.07;3.05;;;21.40;1.00;;;;;;5108033;27;20065;-75
2021/08/10 08:38:04;;;;;;;6.68;3.15;;;21.60;1.00;;;;;;5088774;28;21372;-75
2021/08/10 08:40:54;;;;;;;5.82;2.90;;;21.40;1.00;;;;;;5095924;27;20051;-75
2021/08/10 08:43:44;;;;;;;7.63;2.50;;;21.10;1.00;;;;;;5089774;27;20209;-75
2021/08/10 08:46:33;;;;;;;3.72;2.35;;;21.50;1.00;;;;;;5087170;27;20039;-74
2021/08/10 08:49:25;;;;;;;7.70;2.65;;;22.20;1.00;;;;;;5095685;27;20058;-74
2021/08/10 08:52:16;;;;;;;3.83;2.17;;;21.90;1.00;;;;;;5090741;27;20044;-76
2021/08/10 08:55:09;;;;;;;3.10;2.17;;;22.20;1.00;;;;;;5091089;27;20047;-75
2021/08/10 08:58:00;;;;;;;5.82;2.15;;;22.50;1.00;;;;;;5087677;28;20593;-75
2021/08/10 09:00:49;;;;;;;7.07;2.25;;;22.60;1.00;;;;;;5090055;27;20506;-74
2021/08/10 09:03:38;;;;;;;4.88;2.17;;;22.30;1.00;;;;;;5107136;27;20040;-74
2021/08/10 09:06:31;;;;;;;4.38;2.05;;;22.30;1.00;;;;;;5092313;27;20051;-74
2021/08/10 09:09:25;;;;;;;5.55;3.20;;;22.50;1.00;;;;;;5114158;27;20505;-75
2021/08/10 09:12:21;;;;;;;5.53;2.58;;;22.70;1.00;;;;;;5088942;27;20050;-74
2021/08/10 09:15:29;;;;;;;20.98;15.32;;;23.00;1.00;;;;;;5095393;27;20046;-75
2021/08/10 09:18:21;;;;;;;3.28;2.30;;;23.10;1.00;;;;;;5070299;27;20587;-74
2021/08/10 09:21:21;;;;;;;3.67;2.05;;;23.40;1.00;;;;;;5110217;27;20056;-75
2021/08/10 09:24:22;;;;;;;6.40;2.53;;;22.90;1.00;;;;;;5082487;28;20119;-74
2021/08/10 09:27:26;;;;;;;4.65;2.38;;;23.20;1.00;;;;;;5073550;28;20043;-75
2021/08/10 09:30:18;;;;;;;4.05;2.30;;;24.00;1.00;;;;;;5092790;27;20043;-75
2021/08/10 09:33:07;;;;;;;4.03;2.05;;;23.60;1.00;;;;;;5108603;27;20572;-75
2021/08/10 09:36:18;;;;;;;4.35;2.10;;;23.70;1.00;;;;;;5091318;27;20059;-75
2021/08/10 09:39:07;;;;;;;6.13;2.08;;;23.20;1.00;;;;;;5090803;28;20462;-75
2021/08/10 09:42:03;;;;;;;5.57;2.25;;;23.10;1.00;;;;;;5109269;27;20047;-76
2021/08/10 09:45:04;;;;;;;7.93;2.45;;;23.40;1.00;;;;;;5090871;28;20050;-75
2021/08/10 09:47:59;;;;;;;3.97;2.43;;;23.50;1.00;;;;;;5085187;28;20043;-75
2021/08/10 09:50:48;;;;;;;7.20;2.38;;;23.50;1.00;;;;;;5091670;28;20043;-74
2021/08/10 09:53:37;;;;;;;4.20;2.25;;;22.80;1.00;;;;;;5097946;28;20051;-75
2021/08/10 09:56:38;;;;;;;5.30;2.20;;;23.00;1.00;;;;;;5095406;28;20056;-75
2021/08/10 09:59:29;;;;;;;5.13;2.15;;;23.40;1.00;;;;;;5081996;28;20074;-75
2021/08/10 10:02:19;;;;;;;3.83;2.10;;;23.40;1.00;;;;;;5090811;28;20126;-75
2021/08/10 10:05:10;;;;;;;3.92;2.33;;;23.70;1.00;;;;;;5072819;28;20456;-75
2021/08/10 10:08:14;;;;;;;7.22;2.58;;;23.00;1.00;;;;;;5109898;28;20058;-75
2021/08/10 10:11:03;;;;;;;5.45;2.17;;;22.70;1.00;;;;;;5091823;28;20460;-74
2021/08/10 10:13:56;;;;;;;2.72;2.08;;;23.00;1.00;;;;;;5085006;28;20075;-74
2021/08/10 10:16:48;;;;;;;4.07;2.22;;;22.90;1.00;;;;;;5105988;28;20052;-74
2021/08/10 10:19:38;;;;;;;5.80;2.30;;;23.10;1.00;;;;;;5111148;28;20050;-75
2021/08/10 10:22:32;;;;;;;4.88;2.13;;;23.40;1.00;;;;;;5112420;28;20425;-74
2021/08/10 10:25:25;;;;;;;5.23;2.33;;;23.70;1.00;;;;;;5111219;28;20059;-76
2021/08/10 10:28:15;;;;;;;5.38;2.38;;;23.90;1.00;;;;;;5105664;28;20095;-74
2021/08/10 10:31:04;;;;;;;3.95;2.20;;;24.00;1.00;;;;;;5106411;28;20306;-75
2021/08/10 10:34:14;;;;;;;6.07;2.38;;;23.70;1.00;;;;;;5112783;27;20115;-74
2021/08/10 10:37:34;;;;;;;4.45;2.45;;;23.60;1.00;;;;;;5101304;28;20109;-75
2021/08/10 10:40:29;;;;;;;5.13;2.55;;;23.90;1.00;;;;;;5109496;28;20410;-75
2021/08/10 10:43:17;;;;;;;4.38;2.28;;;24.10;1.00;;;;;;5086267;28;20062;-73
2021/08/10 10:46:26;;;;;;;4.00;2.15;;;23.70;1.00;;;;;;5114320;27;20065;-75
2021/08/10 10:49:38;;;;;;;3.75;1.90;;;24.00;1.00;;;;;;5111103;27;20486;-75
2021/08/10 10:52:28;;;;;;;6.78;2.40;;;24.10;1.00;;;;;;5109372;27;20392;-75
2021/08/10 10:55:32;;;;;;;4.95;2.17;;;23.70;1.00;;;;;;5113172;27;20048;-74
2021/08/10 10:58:28;;;;;;;5.47;2.03;;;23.50;1.00;;;;;;5111124;27;20293;-75
2021/08/10 11:01:19;;;;;;;6.10;2.35;;;23.90;1.00;;;;;;5108984;27;20047;-75
2021/08/10 11:04:12;;;;;;;4.28;1.80;;;23.90;1.00;;;;;;5095051;27;20126;-75
2021/08/10 11:07:34;;;;;;;3.58;2.00;;;23.40;1.00;;;;;;5097136;27;20058;-75
2021/08/10 11:10:47;;;;;;;5.13;1.90;;;23.30;1.00;;;;;;5108376;27;20051;-75
2021/08/10 11:13:40;;;;;;;4.47;2.10;;;23.00;1.00;;;;;;5113466;27;20491;-75
2021/08/10 11:17:03;;;;;;;5.68;1.77;;;23.20;1.00;;;;;;5111631;27;20054;-74
2021/08/10 11:19:52;;;;;;;4.78;2.03;;;23.50;1.00;;;;;;5106943;27;20403;-74
2021/08/10 11:22:41;;;;;;;4.07;1.70;;;23.30;1.00;;;;;;5109490;27;20619;-75
2021/08/10 11:25:29;;;;;;;2.80;1.50;;;23.80;1.00;;;;;;5111758;27;20478;-74
2021/08/10 11:28:27;;;;;;;2.72;1.70;;;24.10;1.00;;;;;;5108568;27;20619;-75
2021/08/10 11:31:33;;;;;;;3.47;1.90;;;24.10;1.00;;;;;;5111595;27;20055;-75
2021/08/10 11:34:38;;;;;;;3.30;1.75;;;23.50;1.00;;;;;;5110138;27;20056;-75
2021/08/10 11:37:30;;;;;;;4.18;1.83;;;23.10;1.00;;;;;;5087589;27;20055;-74
2021/08/10 11:40:18;;;;;;;4.63;1.92;;;23.50;1.00;;;;;;5108281;27;20124;-75
2021/08/10 11:43:07;;;;;;;3.63;1.73;;;23.80;1.00;;;;;;5106744;27;20070;-75
2021/08/10 11:45:59;;;;;;;4.97;2.00;;;23.90;1.00;;;;;;5114526;27;20880;-74
2021/08/10 11:48:49;;;;;;;3.55;2.05;;;23.80;1.00;;;;;;5090936;27;20788;-75
2021/08/10 11:51:39;;;;;;;3.25;1.70;;;23.90;1.00;;;;;;5108745;27;20506;-74
2021/08/10 11:54:27;;;;;;;4.60;1.95;;;23.80;1.00;;;;;;5105497;27;20047;-74
2021/08/10 11:57:16;;;;;;;4.75;1.60;;;24.10;1.00;;;;;;5105340;27;20054;-74
2021/08/10 12:00:14;;;;;;;2.88;1.70;;;24.50;1.00;;;;;;5095189;27;20096;-75
2021/08/10 12:03:05;;;;;;;3.83;1.75;;;24.30;1.00;;;;;;5099251;27;20066;-75
2021/08/10 12:05:54;;;;;;;3.55;1.80;;;24.20;1.00;;;;;;5106077;27;20494;-74
2021/08/10 12:08:43;;;;;;;4.07;1.95;;;24.40;1.00;;;;;;5097464;27;20371;-74
2021/08/10 12:11:31;;;;;;;2.50;1.67;;;23.90;1.00;;;;;;5110296;27;20044;-75
2021/08/10 12:14:21;;;;;;;6.10;2.05;;;24.00;1.00;;;;;;5098982;27;20513;-74
2021/08/10 12:17:11;;;;;;;3.85;2.00;;;23.80;1.00;;;;;;5104860;27;20047;-73
2021/08/10 12:20:13;;;;;;;4.07;1.95;;;24.50;1.00;;;;;;5106654;27;20518;-75
2021/08/10 12:23:03;;;;;;;5.15;1.73;;;24.50;1.00;;;;;;5112197;27;20341;-74
2021/08/10 12:25:51;;;;;;;3.00;1.77;;;24.40;1.00;;;;;;5113861;27;20047;-74
2021/08/10 12:28:56;;;;;;;4.00;1.58;;;24.70;1.00;;;;;;5105596;27;20490;-75
2021/08/10 12:31:46;;;;;;;3.00;1.63;;;24.80;1.00;;;;;;5096556;27;20098;-73
2021/08/10 12:34:36;;;;;;;2.60;1.50;;;24.00;1.00;;;;;;5100707;27;20043;-74
2021/08/10 12:37:30;;;;;;;3.97;1.73;;;25.10;1.00;;;;;;5097605;28;20052;-74
2021/08/10 12:40:19;;;;;;;3.50;1.65;;;24.70;1.00;;;;;;5097416;28;20044;-74
2021/08/10 12:43:12;;;;;;;4.57;2.67;;;24.70;1.00;;;;;;5103454;27;20185;-73
2021/08/10 12:46:20;;;;;;;3.58;2.17;;;24.20;1.00;;;;;;5099505;27;20035;-74
2021/08/10 12:49:14;;;;;;;2.75;1.88;;;23.80;1.00;;;;;;5102370;27;20513;-74
2021/08/10 12:52:05;;;;;;;2.40;1.77;;;25.00;1.00;;;;;;5100163;27;20087;-75
2021/08/10 12:55:00;;;;;;;3.95;1.60;;;24.50;1.00;;;;;;5111110;27;20229;-74
2021/08/10 12:57:59;;;;;;;2.67;1.70;;;24.50;1.00;;;;;;5109290;27;20039;-74
2021/08/10 13:00:57;;;;;;;1.88;1.48;;;24.80;1.00;;;;;;5107635;27;20413;-74
2021/08/10 13:03:46;;;;;;;1.98;1.35;;;24.30;1.00;;;;;;5105754;27;20051;-74
2021/08/10 13:06:35;;;;;;;6.95;1.77;;;24.80;1.00;;;;;;5112697;27;20490;-75
2021/08/10 13:09:23;;;;;;;2.70;1.45;;;25.00;1.00;;;;;;5109988;27;20177;-74
2021/08/10 13:12:13;;;;;;;3.72;1.85;;;24.30;1.00;;;;;;5110276;27;20044;-75
2021/08/10 13:15:05;;;;;;;2.08;1.42;;;24.30;1.00;;;;;;5105340;27;20054;-74
2021/08/10 13:17:54;;;;;;;3.15;1.70;;;24.90;1.00;;;;;;5108890;27;20050;-74
2021/08/10 13:20:50;;;;;;;2.60;1.80;;;24.40;1.00;;;;;;5108953;27;20035;-74
2021/08/10 13:23:39;;;;;;;3.63;1.40;;;24.50;1.00;;;;;;5107283;27;20084;-75
2021/08/10 13:26:41;;;;;;;3.75;1.70;;;24.00;1.00;;;;;;5108680;27;20059;-74
2021/08/10 13:29:37;;;;;;;8.80;1.90;;;24.50;1.00;;;;;;5091551;28;20051;-74
2021/08/10 13:32:27;;;;;;;4.35;1.65;;;24.20;1.00;;;;;;5087260;28;20048;-74
2021/08/10 13:35:16;;;;;;;3.28;1.42;;;25.00;1.00;;;;;;5089339;28;20035;-75
2021/08/10 13:38:05;;;;;;;3.55;2.00;;;24.30;1.00;;;;;;5114436;27;20046;-74
2021/08/10 13:40:54;;;;;;;3.72;1.52;;;24.50;1.00;;;;;;5109482;27;20394;-75
2021/08/10 13:43:42;;;;;;;2.90;1.73;;;24.90;1.00;;;;;;5103909;27;20431;-75
2021/08/10 13:46:32;;;;;;;4.53;2.00;;;24.90;1.00;;;;;;5104985;27;20047;-75
2021/08/10 13:49:20;;;;;;;4.85;1.95;;;24.70;1.00;;;;;;5111523;27;20047;-74
2021/08/10 13:52:09;;;;;;;2.53;1.70;;;24.20;1.00;;;;;;5107798;28;20044;-74
2021/08/10 13:54:57;;;;;;;4.00;1.65;;;24.10;1.00;;;;;;5105013;28;20470;-75
2021/08/10 13:57:45;;;;;;;3.83;2.00;;;24.40;1.00;;;;;;5102956;28;20134;-74
2021/08/10 14:00:34;;;;;;;5.57;2.30;;;23.50;1.00;;;;;;5103918;28;20075;-74
2021/08/10 14:03:24;;;;;;;2.20;1.80;;;24.00;1.00;;;;;;5105377;28;20051;-74
2021/08/10 14:06:28;;;;;;;2.42;1.90;;;24.30;1.00;;;;;;5100324;28;20569;-74
2021/08/10 14:09:16;;;;;;;3.45;1.90;;;24.30;1.00;;;;;;5094582;28;20084;-74
2021/08/10 14:12:07;;;;;;;4.18;2.03;;;24.00;1.00;;;;;;5108450;28;20047;-75
2021/08/10 14:14:56;;;;;;;4.88;2.00;;;24.10;1.00;;;;;;5102329;28;20050;-75
2021/08/10 14:17:45;;;;;;;5.15;2.00;;;24.10;1.00;;;;;;5101508;28;22169;-75
2021/08/10 14:20:34;;;;;;;3.92;1.88;;;24.10;1.00;;;;;;5105993;27;20077;-75
2021/08/10 14:23:23;;;;;;;4.15;1.73;;;24.40;1.00;;;;;;5106447;27;20044;-74
2021/08/10 14:26:12;;;;;;;3.88;1.92;;;24.20;1.00;;;;;;5112792;27;20118;-74
2021/08/10 14:29:01;;;;;;;5.25;1.90;;;23.80;1.00;;;;;;5115394;27;20537;-75
2021/08/10 14:31:49;;;;;;;3.47;1.85;;;23.50;1.00;;;;;;5112885;27;20043;-75
2021/08/10 14:34:38;;;;;;;3.88;1.80;;;24.20;1.00;;;;;;5101998;27;20039;-75
2021/08/10 14:37:27;;;;;;;4.40;2.15;;;24.10;1.00;;;;;;5111374;27;20055;-74
2021/08/10 14:40:16;;;;;;;4.20;2.20;;;24.10;1.00;;;;;;5117983;27;20051;-76
2021/08/10 14:43:04;;;;;;;4.10;1.80;;;23.60;1.00;;;;;;5095140;27;20050;-77
2021/08/10 14:45:52;;;;;;;9.23;2.10;;;24.50;1.00;;;;;;5108381;27;20046;-77
2021/08/10 14:48:41;;;;;;;6.28;2.20;;;24.70;1.00;;;;;;5101447;27;20043;-76
2021/08/10 14:51:29;;;;;;;4.30;2.38;;;24.20;1.00;;;;;;5115547;27;20127;-77
2021/08/10 14:54:19;;;;;;;3.45;1.80;;;24.10;1.00;;;;;;5110019;27;20047;-77
2021/08/10 14:57:07;;;;;;;3.55;1.65;;;23.80;1.00;;;;;;5107138;27;20131;-75
2021/08/10 14:59:56;;;;;;;4.38;2.42;;;24.30;1.00;;;;;;5108041;27;20051;-73
2021/08/10 15:02:44;;;;;;;1.95;1.60;;;24.10;1.00;;;;;;5111725;27;20651;-75